createdAt,value
2018-07-24T00:01:17.669Z,94144.49
2018-07-24T00:03:43.997Z,94138.23
2018-07-24T00:06:10.413Z,94139.52
2018-07-24T00:08:36.744Z,94137.12
2018-07-24T00:11:03.105Z,94138.53
2018-07-24T00:13:29.417Z,94131.20
2018-07-24T00:15:55.761Z,94135.71
2018-07-24T00:18:22.148Z,94132.25
2018-07-24T00:20:48.495Z,94133.95
2018-07-24T00:23:14.858Z,94136.43
2018-07-24T00:25:41.257Z,94138.77
2018-07-24T00:28:07.588Z,94135.13
2018-07-24T00:30:33.987Z,94127.73
2018-07-24T00:33:00.367Z,94136.59
2018-07-24T00:35:26.709Z,94124.92
2018-07-24T00:37:53.042Z,94125.81
2018-07-24T00:40:19.397Z,94123.83
2018-07-24T00:42:45.778Z,94118.36
2018-07-24T00:45:12.113Z,94118.08
2018-07-24T00:47:38.542Z,94119.53
2018-07-24T00:50:04.823Z,94113.73
2018-07-24T00:52:31.187Z,94116.07
2018-07-24T00:54:57.534Z,94112.10
2018-07-24T00:57:23.894Z,94110.98
2018-07-24T00:59:50.221Z,94115.35
2018-07-24T01:02:16.592Z,94116.79
2018-07-24T01:04:43.073Z,94117.34
2018-07-24T01:07:09.385Z,94115.70
2018-07-24T01:09:35.787Z,94110.55
2018-07-24T01:12:02.128Z,94113.24
2018-07-24T01:14:28.457Z,94113.18
2018-07-24T01:16:54.816Z,94107.91
2018-07-24T01:19:21.186Z,94108.38
2018-07-24T01:21:47.550Z,94108.77
2018-07-24T01:24:13.905Z,94113.81
2018-07-24T01:26:40.241Z,94109.13
2018-07-24T01:29:06.549Z,94109.82
2018-07-24T01:31:32.926Z,94116.20
2018-07-24T01:33:59.304Z,94110.23
2018-07-24T01:36:25.666Z,94112.06
2018-07-24T01:38:52.096Z,94105.78
2018-07-24T01:41:18.425Z,94108.19
2018-07-24T01:43:44.757Z,94110.75
2018-07-24T01:46:11.126Z,94113.97
2018-07-24T01:48:37.440Z,94119.50
2018-07-24T01:51:03.854Z,94111.05
2018-07-24T01:53:30.182Z,94116.44
2018-07-24T01:55:56.512Z,94108.06
2018-07-24T01:58:22.827Z,94105.55
2018-07-24T02:00:49.172Z,94103.20
2018-07-24T02:03:15.527Z,94103.20
2018-07-24T02:05:41.888Z,94098.11
2018-07-24T02:08:08.257Z,94100.88
2018-07-24T02:10:34.634Z,94101.09
2018-07-24T02:13:01.002Z,94100.09
2018-07-24T02:15:27.331Z,94100.50
2018-07-24T02:17:53.699Z,94099.97
2018-07-24T02:20:20.027Z,94099.22
2018-07-24T02:22:46.390Z,94096.41
2018-07-24T02:25:12.719Z,94100.22
2018-07-24T02:27:39.117Z,94100.84
2018-07-24T02:30:05.502Z,94102.30
2018-07-24T02:32:31.880Z,94098.94
2018-07-24T02:34:58.215Z,94099.22
2018-07-24T02:37:24.585Z,94096.86
2018-07-24T02:39:50.903Z,94105.06
2018-07-24T02:42:17.238Z,94102.20
2018-07-24T02:44:43.592Z,94111.92
2018-07-24T02:47:10.034Z,94103.84
2018-07-24T02:49:36.468Z,94103.71
2018-07-24T02:52:02.823Z,94101.39
2018-07-24T02:54:29.140Z,94102.77
2018-07-24T02:56:55.475Z,94097.50
2018-07-24T02:59:21.854Z,94103.19
2018-07-24T03:01:48.187Z,94100.80
2018-07-24T03:04:14.507Z,94102.91
2018-07-24T03:06:40.851Z,94101.14
2018-07-24T03:09:07.243Z,94101.77
2018-07-24T03:11:33.656Z,94103.88
2018-07-24T03:14:00.094Z,94105.30
2018-07-24T03:16:26.435Z,94105.30
2018-07-24T03:18:52.765Z,94106.83
2018-07-24T03:21:19.138Z,94111.11
2018-07-24T03:23:45.530Z,94113.53
2018-07-24T03:26:11.866Z,94108.38
2018-07-24T03:28:38.198Z,94113.80
2018-07-24T03:31:04.531Z,94116.97
2018-07-24T03:33:30.850Z,94111.19
2018-07-24T03:35:57.191Z,94121.08
2018-07-24T03:38:23.530Z,94116.62
2018-07-24T03:40:49.877Z,94117.21
2018-07-24T03:43:16.224Z,94118.44
2018-07-24T03:45:42.607Z,94122.48
2018-07-24T03:48:09.048Z,94124.64
2018-07-24T03:50:35.415Z,94125.23
2018-07-24T03:53:01.765Z,94124.42
2018-07-24T03:55:28.160Z,94123.38
2018-07-24T03:57:54.515Z,94126.65
2018-07-24T04:00:20.852Z,94126.61
2018-07-24T04:02:47.183Z,94133.86
2018-07-24T04:05:13.565Z,94128.54
2018-07-24T04:07:39.911Z,94128.48
2018-07-24T04:10:06.231Z,94122.80
2018-07-24T04:12:32.555Z,94122.39
2018-07-24T04:14:58.903Z,94118.45
2018-07-24T04:17:25.277Z,94133.70
2018-07-24T04:19:51.618Z,94128.17
2018-07-24T04:22:17.979Z,94127.67
2018-07-24T04:24:44.345Z,94126.25
2018-07-24T04:27:10.685Z,94123.50
2018-07-24T04:29:37.011Z,94120.81
2018-07-24T04:32:03.491Z,94122.57
2018-07-24T04:34:29.833Z,94125.63
2018-07-24T04:36:56.207Z,94127.91
2018-07-24T04:39:22.576Z,94127.65
2018-07-24T04:41:48.895Z,94127.59
2018-07-24T04:44:15.224Z,94132.23
2018-07-24T04:46:41.590Z,94134.86
2018-07-24T04:49:07.920Z,94136.73
2018-07-24T04:51:34.300Z,94138.50
2018-07-24T04:54:00.679Z,94140.72
2018-07-24T04:56:27.023Z,94137.69
2018-07-24T04:58:53.347Z,94143.44
2018-07-24T05:01:19.672Z,94139.50
2018-07-24T05:03:46.048Z,94136.04
2018-07-24T05:06:12.408Z,94139.84
2018-07-24T05:08:38.841Z,94145.54
2018-07-24T05:11:05.199Z,94148.95
2018-07-24T05:13:31.528Z,94151.00
2018-07-24T05:15:57.974Z,94148.23
2018-07-24T05:18:24.395Z,94143.73
2018-07-24T05:20:50.734Z,94148.89
2018-07-24T05:23:17.103Z,94150.01
2018-07-24T05:25:43.472Z,94150.64
2018-07-24T05:28:09.795Z,94149.56
2018-07-24T05:30:36.154Z,94152.81
2018-07-24T05:33:02.491Z,94150.23
2018-07-24T05:35:28.824Z,94153.26
2018-07-24T05:37:55.147Z,94149.64
2018-07-24T05:40:21.575Z,94160.73
2018-07-24T05:42:47.975Z,94159.53
2018-07-24T05:45:14.330Z,94165.05
2018-07-24T05:47:40.678Z,94162.12
2018-07-24T05:50:07.004Z,94165.88
2018-07-24T05:52:33.414Z,94166.89
2018-07-24T05:54:59.787Z,94167.98
2018-07-24T05:57:26.103Z,94175.17
2018-07-24T05:59:52.430Z,94167.80
2018-07-24T06:02:18.834Z,94173.86
2018-07-24T06:04:45.235Z,94167.52
2018-07-24T06:07:11.627Z,94173.04
2018-07-24T06:09:37.963Z,94173.31
2018-07-24T06:12:04.316Z,94171.78
2018-07-24T06:14:30.778Z,94171.38
2018-07-24T06:16:57.104Z,94175.63
2018-07-24T06:19:23.478Z,94169.87
2018-07-24T06:21:49.926Z,94171.42
2018-07-24T06:24:16.303Z,94174.41
2018-07-24T06:26:42.669Z,94173.89
2018-07-24T06:29:09.104Z,94180.16
2018-07-24T06:31:35.849Z,94184.66
2018-07-24T06:34:02.351Z,94185.80
2018-07-24T06:36:28.780Z,94188.77
2018-07-24T06:38:55.179Z,94189.77
2018-07-24T06:41:21.612Z,94183.15
2018-07-24T06:43:48.014Z,94187.53
2018-07-24T06:46:14.525Z,94179.85
2018-07-24T06:48:40.941Z,94178.91
2018-07-24T06:51:07.411Z,94174.14
2018-07-24T06:53:33.843Z,94178.37
2018-07-24T06:56:00.300Z,94177.36
2018-07-24T06:58:26.678Z,94174.50
2018-07-24T07:00:53.030Z,94179.08
2018-07-24T07:03:19.457Z,94180.00
2018-07-24T07:05:45.791Z,94183.42
2018-07-24T07:08:12.236Z,94174.27
2018-07-24T07:10:38.664Z,94178.23
2018-07-24T07:13:05.056Z,94183.53
2018-07-24T07:15:31.422Z,94189.25
2018-07-24T07:17:57.816Z,94187.08
2018-07-24T07:20:24.194Z,94191.67
2018-07-24T07:22:50.582Z,94196.94
2018-07-24T07:25:17.052Z,94193.73
2018-07-24T07:27:43.548Z,94192.87
2018-07-24T07:30:09.920Z,94197.22
2018-07-24T07:32:36.311Z,94199.46
2018-07-24T07:35:02.732Z,94207.36
2018-07-24T07:37:29.296Z,94197.50
2018-07-24T07:39:55.755Z,94200.02
2018-07-24T07:42:22.189Z,94198.09
2018-07-24T07:44:48.543Z,94202.94
2018-07-24T07:47:14.917Z,94200.71
2018-07-24T07:49:41.277Z,94202.76
2018-07-24T07:52:08.017Z,94204.07
2018-07-24T07:54:34.457Z,94204.70
2018-07-24T07:57:00.823Z,94204.66
2018-07-24T07:59:27.217Z,94204.35
2018-07-24T08:01:53.550Z,94205.79
2018-07-24T08:04:19.961Z,94205.19
2018-07-24T08:06:46.312Z,94205.02
2018-07-24T08:09:12.811Z,94208.45
2018-07-24T08:11:39.296Z,94214.75
2018-07-24T08:14:05.734Z,94212.36
2018-07-24T08:16:32.165Z,94217.16
2018-07-24T08:18:58.593Z,94218.75
2018-07-24T08:21:24.998Z,94215.45
2018-07-24T08:23:51.365Z,94216.57
2018-07-24T08:26:17.768Z,94215.55
2018-07-24T08:28:44.223Z,94215.93
2018-07-24T08:31:10.708Z,94217.45
2018-07-24T08:33:37.094Z,94218.11
2018-07-24T08:36:03.457Z,94219.63
2018-07-24T08:38:29.843Z,94216.11
2018-07-24T08:40:56.265Z,94226.91
2018-07-24T08:43:22.605Z,94224.53
2018-07-24T08:45:48.999Z,94228.10
2018-07-24T08:48:15.369Z,94225.88
2018-07-24T08:50:41.707Z,94219.02
2018-07-24T08:53:08.317Z,94218.70
2018-07-24T08:55:34.983Z,94224.53
2018-07-24T08:58:01.052Z,94223.06
2018-07-24T09:00:27.469Z,94216.27
2018-07-24T09:02:53.855Z,94212.29
2018-07-24T09:05:20.332Z,94215.63
2018-07-24T09:07:46.707Z,94205.48
2018-07-24T09:10:13.063Z,94211.41
2018-07-24T09:12:39.543Z,94207.03
2018-07-24T09:15:05.940Z,94203.77
2018-07-24T09:17:32.456Z,94194.42
2018-07-24T09:19:59.390Z,94196.97
2018-07-24T09:22:25.736Z,94199.96
2018-07-24T09:24:52.133Z,94195.03
2018-07-24T09:27:18.478Z,94192.14
2018-07-24T09:29:44.933Z,94197.48
2018-07-24T09:32:11.295Z,94191.73
2018-07-24T09:34:37.628Z,94186.05
2018-07-24T09:37:03.977Z,94189.04
2018-07-24T09:39:30.330Z,94191.97
2018-07-24T09:41:56.689Z,94185.50
2018-07-24T09:44:23.060Z,94180.53
2018-07-24T09:46:49.519Z,94177.37
2018-07-24T09:49:15.985Z,94187.98
2018-07-24T09:51:42.371Z,94187.33
2018-07-24T09:54:08.777Z,94185.94
2018-07-24T09:56:35.147Z,94184.98
2018-07-24T09:59:01.517Z,94183.39
2018-07-24T10:01:27.945Z,94178.14
2018-07-24T10:03:54.352Z,94180.22
2018-07-24T10:06:20.709Z,94175.05
2018-07-24T10:08:47.188Z,94180.29
2018-07-24T10:11:13.574Z,94180.46
2018-07-24T10:13:40.019Z,94175.31
2018-07-24T10:16:06.411Z,94182.54
2018-07-24T10:18:32.755Z,94178.14
2018-07-24T10:20:59.149Z,94177.50
2018-07-24T10:23:25.537Z,94174.27
2018-07-24T10:25:51.930Z,94176.63
2018-07-24T10:28:18.392Z,94170.80
2018-07-24T10:30:44.763Z,94168.45
2018-07-24T10:33:11.146Z,94159.83
2018-07-24T10:35:37.534Z,94158.98
2018-07-24T10:38:03.958Z,94161.60
2018-07-24T10:40:30.402Z,94157.03
2018-07-24T10:42:56.780Z,94165.19
2018-07-24T10:45:23.142Z,94155.63
2018-07-24T10:47:49.498Z,94152.42
2018-07-24T10:50:15.861Z,94153.22
2018-07-24T10:52:42.224Z,94153.24
2018-07-24T10:55:08.618Z,94145.43
2018-07-24T10:57:34.947Z,94146.37
2018-07-24T11:00:01.333Z,94147.52
2018-07-24T11:02:27.683Z,94148.95
2018-07-24T11:04:54.064Z,94139.92
2018-07-24T11:07:20.457Z,94140.63
2018-07-24T11:09:46.913Z,94134.53
2018-07-24T11:12:13.241Z,94138.13
2018-07-24T11:14:39.665Z,94139.23
2018-07-24T11:17:06.080Z,94143.21
2018-07-24T11:19:32.439Z,94141.60
2018-07-24T11:21:58.949Z,94131.57
2018-07-24T11:24:25.325Z,94128.41
2018-07-24T11:26:51.695Z,94123.09
2018-07-24T11:29:18.094Z,94121.94
2018-07-24T11:31:44.500Z,94122.78
2018-07-24T11:34:10.851Z,94119.53
2018-07-24T11:36:37.236Z,94119.13
2018-07-24T11:39:03.614Z,94117.27
2018-07-24T11:41:29.993Z,94114.44
2018-07-24T11:43:56.370Z,94128.59
2018-07-24T11:46:22.788Z,94120.36
2018-07-24T11:48:49.143Z,94115.16
2018-07-24T11:51:15.561Z,94111.06
2018-07-24T11:53:41.927Z,94105.88
2018-07-24T11:56:08.317Z,94107.27
2018-07-24T11:58:35.556Z,94092.81
2018-07-24T12:01:01.949Z,94100.66
2018-07-24T12:03:28.368Z,94098.80
2018-07-24T12:05:54.732Z,94097.17
2018-07-24T12:08:21.068Z,94095.33
2018-07-24T12:10:47.493Z,94095.09
2018-07-24T12:13:13.931Z,94096.16
2018-07-24T12:15:40.317Z,94092.35
2018-07-24T12:18:06.685Z,94091.02
2018-07-24T12:20:33.131Z,94082.06
2018-07-24T12:22:59.499Z,94076.41
2018-07-24T12:25:25.952Z,94070.45
2018-07-24T12:27:52.300Z,94070.70
2018-07-24T12:30:18.691Z,94077.98
2018-07-24T12:32:45.124Z,94078.94
2018-07-24T12:35:11.516Z,94074.24
2018-07-24T12:37:37.927Z,94078.55
2018-07-24T12:40:04.321Z,94074.80
2018-07-24T12:42:30.722Z,94090.00
2018-07-24T12:44:57.181Z,94100.26
2018-07-24T12:47:23.584Z,94111.84
2018-07-24T12:49:50.124Z,94122.84
2018-07-24T12:52:16.552Z,94129.78
2018-07-24T12:54:43.065Z,94128.97
2018-07-24T12:57:09.552Z,94127.77
2018-07-24T12:59:35.918Z,94125.32
2018-07-24T13:02:02.316Z,94126.19
2018-07-24T13:04:28.674Z,94133.59
2018-07-24T13:06:55.140Z,94130.06
2018-07-24T13:09:21.535Z,94133.20
2018-07-24T13:11:47.930Z,94132.28
2018-07-24T13:14:14.271Z,94139.13
2018-07-24T13:16:40.691Z,94136.00
2018-07-24T13:19:07.116Z,94136.98
2018-07-24T13:21:33.493Z,94149.70
2018-07-24T13:24:01.859Z,94150.98
2018-07-24T13:26:28.323Z,94147.25
2018-07-24T13:28:54.741Z,94145.53
2018-07-24T13:31:21.096Z,94137.38
2018-07-24T13:33:47.461Z,94134.08
2018-07-24T13:36:13.887Z,94137.58
2018-07-24T13:38:40.322Z,94139.75
2018-07-24T13:41:06.694Z,94146.19
2018-07-24T13:43:33.062Z,94150.13
2018-07-24T13:45:59.522Z,94146.25
2018-07-24T13:48:26.067Z,94144.30
2018-07-24T13:50:52.529Z,94145.73
2018-07-24T13:53:18.972Z,94136.45
2018-07-24T13:55:45.348Z,94133.28
2018-07-24T13:58:11.765Z,94128.27
2018-07-24T14:00:38.162Z,94125.91
2018-07-24T14:03:04.544Z,94127.53
2018-07-24T14:05:30.979Z,94124.00
2018-07-24T14:07:57.569Z,94117.09
2018-07-24T14:10:23.912Z,94127.48
2018-07-24T14:12:50.226Z,94125.73
2018-07-24T14:15:16.591Z,94126.06
2018-07-24T14:17:42.976Z,94124.19
2018-07-24T14:20:09.325Z,94123.91
2018-07-24T14:22:35.694Z,94123.27
2018-07-24T14:25:02.118Z,94130.69
2018-07-24T14:27:28.583Z,94128.81
2018-07-24T14:29:54.919Z,94124.67
2018-07-24T14:32:21.279Z,94122.43
2018-07-24T14:34:47.623Z,94121.42
2018-07-24T14:37:13.976Z,94123.16
2018-07-24T14:39:40.369Z,94127.08
2018-07-24T14:42:06.704Z,94117.87
2018-07-24T14:44:33.036Z,94116.00
2018-07-24T14:46:59.431Z,94116.93
2018-07-24T14:49:25.794Z,94119.13
2018-07-24T14:51:52.180Z,94121.48
2018-07-24T14:54:18.526Z,94122.77
2018-07-24T14:56:44.888Z,94132.05
2018-07-24T14:59:11.256Z,94130.51
2018-07-24T15:01:37.587Z,94130.83
2018-07-24T15:04:04.000Z,94131.95
2018-07-24T15:06:30.484Z,94132.59
2018-07-24T15:08:56.903Z,94124.60
2018-07-24T15:11:23.264Z,94131.34
2018-07-24T15:13:49.619Z,94131.07
2018-07-24T15:16:15.947Z,94134.97
2018-07-24T15:18:42.307Z,94139.46
2018-07-24T15:21:08.709Z,94138.59
2018-07-24T15:23:35.092Z,94139.83
2018-07-24T15:26:01.520Z,94146.44
2018-07-24T15:28:27.879Z,94145.65
2018-07-24T15:30:54.251Z,94150.46
2018-07-24T15:33:20.611Z,94155.42
2018-07-24T15:35:46.930Z,94142.30
2018-07-24T15:38:13.264Z,94145.89
2018-07-24T15:40:39.664Z,94137.98
2018-07-24T15:43:06.038Z,94143.56
2018-07-24T15:45:32.499Z,94135.83
2018-07-24T15:47:58.899Z,94141.87
2018-07-24T15:50:25.264Z,94133.77
2018-07-24T15:52:51.625Z,94136.25
2018-07-24T15:55:17.954Z,94139.92
2018-07-24T15:57:44.354Z,94141.34
2018-07-24T16:00:10.720Z,94136.39
2018-07-24T16:02:37.085Z,94138.22
2018-07-24T16:05:03.458Z,94144.75
2018-07-24T16:07:29.843Z,94145.79
2018-07-24T16:09:56.185Z,94148.91
2018-07-24T16:12:22.519Z,94152.35
2018-07-24T16:14:48.869Z,94149.39
2018-07-24T16:17:15.204Z,94144.73
2018-07-24T16:19:41.569Z,94151.41
2018-07-24T16:22:07.905Z,94149.60
2018-07-24T16:24:34.267Z,94154.50
2018-07-24T16:27:00.646Z,94159.59
2018-07-24T16:29:27.033Z,94161.20
2018-07-24T16:31:53.375Z,94161.61
2018-07-24T16:34:19.769Z,94175.75
2018-07-24T16:36:46.115Z,94179.97
2018-07-24T16:39:12.453Z,94192.06
2018-07-24T16:41:38.815Z,94197.68
2018-07-24T16:44:05.217Z,94203.89
2018-07-24T16:46:31.555Z,94204.24
2018-07-24T16:48:57.883Z,94202.23
2018-07-24T16:51:24.245Z,94199.73
2018-07-24T16:53:50.575Z,94196.52
2018-07-24T16:56:16.982Z,94194.27
2018-07-24T16:58:43.299Z,94199.27
2018-07-24T17:01:09.651Z,94201.14
2018-07-24T17:03:36.006Z,94202.67
2018-07-24T17:06:02.336Z,94204.13
2018-07-24T17:08:28.760Z,94206.48
2018-07-24T17:10:55.101Z,94207.80
2018-07-24T17:13:22.166Z,94207.80
2018-07-24T17:15:48.578Z,94206.76
2018-07-24T17:18:14.967Z,94211.48
2018-07-24T17:20:41.291Z,94216.08
2018-07-24T17:23:07.672Z,94219.34
2018-07-24T17:25:34.048Z,94228.45
2018-07-24T17:28:00.393Z,94231.92
2018-07-24T17:30:26.735Z,94230.33
2018-07-24T17:32:53.124Z,94239.24
2018-07-24T17:35:19.512Z,94232.09
2018-07-24T17:37:45.897Z,94233.91
2018-07-24T17:40:12.244Z,94235.02
2018-07-24T17:42:38.652Z,94233.97
2018-07-24T17:45:05.024Z,94233.43
2018-07-24T17:47:31.358Z,94228.19
2018-07-24T17:49:57.779Z,94230.81
2018-07-24T17:52:24.113Z,94234.38
2018-07-24T17:54:50.431Z,94241.25
2018-07-24T17:57:16.834Z,94239.45
2018-07-24T17:59:43.335Z,94241.16
2018-07-24T18:02:09.674Z,94248.19
2018-07-24T18:04:36.050Z,94247.72
2018-07-24T18:07:02.401Z,94254.72
2018-07-24T18:09:28.727Z,94261.33
2018-07-24T18:11:55.083Z,94260.23
2018-07-24T18:14:21.491Z,94255.27
2018-07-24T18:16:47.813Z,94255.91
2018-07-24T18:19:14.178Z,94252.38
2018-07-24T18:21:40.550Z,94254.95
2018-07-24T18:24:06.887Z,94256.08
2018-07-24T18:26:33.216Z,94254.08
2018-07-24T18:28:59.664Z,94256.56
2018-07-24T18:31:26.037Z,94253.80
2018-07-24T18:33:52.412Z,94251.09
2018-07-24T18:36:18.806Z,94251.39
2018-07-24T18:38:45.256Z,94248.67
2018-07-24T18:41:11.535Z,94244.75
2018-07-24T18:43:37.864Z,94255.06
2018-07-24T18:46:04.202Z,94258.73
2018-07-24T18:48:30.685Z,94256.32
2018-07-24T18:50:57.200Z,94252.44
2018-07-24T18:53:23.568Z,94258.45
2018-07-24T18:55:49.901Z,94255.22
2018-07-24T18:58:16.307Z,94260.94
2018-07-24T19:00:42.661Z,94259.47
2018-07-24T19:03:08.999Z,94264.77
2018-07-24T19:05:35.387Z,94266.12
2018-07-24T19:08:01.766Z,94271.66
2018-07-24T19:10:28.302Z,94267.74
2018-07-24T19:12:54.663Z,94274.91
2018-07-24T19:15:21.024Z,94274.97
2018-07-24T19:17:47.356Z,94276.50
2018-07-24T19:20:13.699Z,94278.73
2018-07-24T19:22:40.060Z,94277.91
2018-07-24T19:25:06.463Z,94281.03
2018-07-24T19:27:32.814Z,94283.42
2018-07-24T19:29:59.145Z,94288.54
2018-07-24T19:32:25.573Z,94287.14
2018-07-24T19:34:51.938Z,94288.02
2018-07-24T19:37:18.264Z,94284.78
2018-07-24T19:39:44.637Z,94282.98
2018-07-24T19:42:11.035Z,94282.97
2018-07-24T19:44:37.418Z,94271.70
2018-07-24T19:47:03.759Z,94273.64
2018-07-24T19:49:30.186Z,94276.35
2018-07-24T19:51:56.564Z,94274.06
2018-07-24T19:54:23.160Z,94277.48
2018-07-24T19:56:49.566Z,94273.77
2018-07-24T19:59:15.987Z,94267.55
2018-07-24T20:01:42.333Z,94274.91
2018-07-24T20:04:08.663Z,94281.11
2018-07-24T20:06:34.986Z,94286.05
2018-07-24T20:09:01.320Z,94279.07
2018-07-24T20:11:27.689Z,94278.34
2018-07-24T20:13:54.085Z,94276.23
2018-07-24T20:16:20.445Z,94276.91
2018-07-24T20:18:46.772Z,94292.28
2018-07-24T20:21:13.147Z,94282.14
2018-07-24T20:23:39.608Z,94281.26
2018-07-24T20:26:05.978Z,94282.38
2018-07-24T20:28:32.313Z,94282.57
2018-07-24T20:30:58.641Z,94279.45
2018-07-24T20:33:25.013Z,94274.41
2018-07-24T20:35:51.578Z,94269.34
2018-07-24T20:38:17.938Z,94270.77
2018-07-24T20:40:44.337Z,94263.66
2018-07-24T20:43:10.672Z,94261.08
2018-07-24T20:45:37.003Z,94260.61
2018-07-24T20:48:03.327Z,94262.25
2018-07-24T20:50:29.698Z,94257.91
2018-07-24T20:52:56.025Z,94264.56
2018-07-24T20:55:22.392Z,94265.66
2018-07-24T20:57:48.712Z,94258.45
2018-07-24T21:00:15.057Z,94262.95
2018-07-24T21:02:41.392Z,94256.63
2018-07-24T21:05:07.775Z,94251.77
2018-07-24T21:07:34.127Z,94256.45
2018-07-24T21:10:00.441Z,94257.56
2018-07-24T21:12:26.775Z,94251.52
2018-07-24T21:14:53.259Z,94253.05
2018-07-24T21:17:19.600Z,94254.57
2018-07-24T21:19:46.031Z,94253.17
2018-07-24T21:22:12.407Z,94252.75
2018-07-24T21:24:38.730Z,94257.38
2018-07-24T21:27:05.096Z,94258.55
2018-07-24T21:29:31.478Z,94257.51
2018-07-24T21:31:57.793Z,94262.08
2018-07-24T21:34:24.202Z,94263.98
2018-07-24T21:36:50.645Z,94258.81
2018-07-24T21:39:16.985Z,94266.31
2018-07-24T21:41:43.359Z,94264.20
2018-07-24T21:44:09.654Z,94261.28
2018-07-24T21:46:35.987Z,94261.02
2018-07-24T21:49:02.447Z,94263.48
2018-07-24T21:51:28.776Z,94268.14
2018-07-24T21:53:55.089Z,94272.23
2018-07-24T21:56:21.401Z,94272.46
2018-07-24T21:58:47.736Z,94269.66
2018-07-24T22:01:14.067Z,94267.77
2018-07-24T22:03:40.398Z,94273.88
2018-07-24T22:06:06.807Z,94271.64
2018-07-24T22:08:33.185Z,94273.16
2018-07-24T22:10:59.538Z,94271.40
2018-07-24T22:13:25.883Z,94264.95
2018-07-24T22:15:52.289Z,94270.23
2018-07-24T22:18:18.626Z,94264.66
2018-07-24T22:20:44.992Z,94265.77
2018-07-24T22:23:11.427Z,94268.36
2018-07-24T22:25:37.782Z,94262.72
2018-07-24T22:28:04.113Z,94273.17
2018-07-24T22:30:30.445Z,94274.63
2018-07-24T22:32:56.775Z,94268.48
2018-07-24T22:35:23.182Z,94265.88
2018-07-24T22:37:49.596Z,94270.88
2018-07-24T22:40:15.930Z,94271.28
2018-07-24T22:42:42.276Z,94265.53
2018-07-24T22:45:08.608Z,94262.01
2018-07-24T22:47:34.966Z,94260.72
2018-07-24T22:50:01.324Z,94254.98
2018-07-24T22:52:27.682Z,94249.98
2018-07-24T22:54:54.003Z,94238.09
2018-07-24T22:57:20.365Z,94239.80
2018-07-24T22:59:46.715Z,94238.39
2018-07-24T23:02:13.027Z,94237.38
2018-07-24T23:04:39.401Z,94240.84
2018-07-24T23:07:05.740Z,94244.43
2018-07-24T23:09:32.143Z,94241.56
2018-07-24T23:11:58.685Z,94243.30
2018-07-24T23:14:25.023Z,94244.78
2018-07-24T23:16:51.373Z,94241.19
2018-07-24T23:19:17.730Z,94247.30
2018-07-24T23:21:44.116Z,94245.59
2018-07-24T23:24:10.530Z,94241.32
2018-07-24T23:26:36.879Z,94248.22
2018-07-24T23:29:03.223Z,94236.61
2018-07-24T23:31:29.600Z,94231.45
2018-07-24T23:33:55.919Z,94230.77
2018-07-24T23:36:22.263Z,94240.01
2018-07-24T23:38:48.580Z,94226.77
2018-07-24T23:41:14.920Z,94227.94
2018-07-24T23:43:41.255Z,94223.50
2018-07-24T23:46:07.587Z,94217.95
2018-07-24T23:48:33.907Z,94219.97
2018-07-24T23:51:00.271Z,94226.42
2018-07-24T23:53:26.603Z,94224.73
2018-07-24T23:55:52.984Z,94224.73
2018-07-24T23:58:19.340Z,94216.80
